Time;durP1;ratioP1;P1;durP2;ratioP2;P2;SDS_P1;SDS_P2;PMS_P1;PMS_P2;Temp;Humidity;BMP_temperature;BMP_pressure;BME280_temperature;BME280_humidity;BME280_pressure;Samples;Min_cycle;Max_cycle;Signal;HPM_P1;HPM_P2
2023/05/24 00:00:59;;;;;;;4.93;1.70;;;;;;;;;;5051279;28;20864;-56
2023/05/24 00:03:25;;;;;;;5.53;1.92;;;;;;;;;;5064955;28;20052;-51
2023/05/24 00:05:51;;;;;;;5.00;1.73;;;;;;;;;;5065481;28;20491;-57
2023/05/24 00:08:18;;;;;;;4.95;1.80;;;;;;;;;;5065586;28;20096;-56
2023/05/24 00:10:45;;;;;;;6.45;2.22;;;;;;;;;;5065127;28;20103;-55
2023/05/24 00:13:11;;;;;;;16.98;2.33;;;;;;;;;;5064631;28;20053;-55
2023/05/24 00:15:37;;;;;;;3.67;2.10;;;;;;;;;;5065259;28;20123;-56
2023/05/24 00:18:04;;;;;;;7.40;1.55;;;;;;;;;;5065114;28;20148;-56
2023/05/24 00:20:30;;;;;;;5.10;1.83;;;;;;;;;;5065116;28;20435;-53
2023/05/24 00:22:57;;;;;;;7.18;1.77;;;;;;;;;;5066704;28;20055;-55
2023/05/24 00:25:24;;;;;;;8.43;2.30;;;;;;;;;;5066900;28;20072;-53
2023/05/24 00:27:50;;;;;;;14.40;2.65;;;;;;;;;;5064759;28;20072;-52
2023/05/24 00:30:17;;;;;;;6.05;2.03;;;;;;;;;;5064964;28;20176;-51
2023/05/24 00:32:43;;;;;;;6.93;2.60;;;;;;;;;;5065450;28;20057;-54
2023/05/24 00:35:09;;;;;;;3.10;1.75;;;;;;;;;;5064925;28;20045;-56
2023/05/24 00:37:36;;;;;;;7.53;2.88;;;;;;;;;;5064851;28;20057;-55
2023/05/24 00:40:03;;;;;;;5.57;1.67;;;;;;;;;;5064567;28;20714;-56
2023/05/24 00:42:30;;;;;;;7.40;1.90;;;;;;;;;;5064342;28;20149;-57
2023/05/24 00:44:56;;;;;;;2.33;1.40;;;;;;;;;;5065164;28;20056;-55
2023/05/24 00:47:23;;;;;;;10.48;2.05;;;;;;;;;;5064776;28;20081;-52
2023/05/24 00:49:49;;;;;;;4.15;1.70;;;;;;;;;;5064589;28;20057;-57
2023/05/24 00:52:16;;;;;;;4.85;1.98;;;;;;;;;;5064906;28;20088;-54
2023/05/24 00:54:43;;;;;;;3.85;2.30;;;;;;;;;;5064689;28;20049;-54
2023/05/24 00:57:12;;;;;;;3.83;1.73;;;;;;;;;;5063919;28;20064;-57
2023/05/24 00:59:39;;;;;;;10.85;2.22;;;;;;;;;;5064165;28;20180;-53
2023/05/24 01:02:05;;;;;;;6.95;2.10;;;;;;;;;;5064527;28;20513;-52
2023/05/24 01:04:32;;;;;;;8.25;2.55;;;;;;;;;;5064783;28;20111;-53
2023/05/24 01:07:17;;;;;;;12.90;3.00;;;;;;;;;;5063143;28;20140;-55
2023/05/24 01:09:49;;;;;;;7.32;2.30;;;;;;;;;;5064170;28;20052;-53
2023/05/24 01:12:23;;;;;;;9.88;2.22;;;;;;;;;;5064048;28;20063;-56
2023/05/24 01:15:00;;;;;;;5.85;2.05;;;;;;;;;;5064600;28;20051;-53
2023/05/24 01:17:31;;;;;;;7.93;1.80;;;;;;;;;;5064592;28;20498;-52
2023/05/24 01:20:01;;;;;;;11.38;2.40;;;;;;;;;;5063876;28;20433;-56
2023/05/24 01:22:42;;;;;;;14.43;1.98;;;;;;;;;;5063769;28;20045;-57
2023/05/24 01:25:26;;;;;;;7.35;2.88;;;;;;;;;;5062972;28;20537;-55
2023/05/24 01:27:53;;;;;;;7.63;2.63;;;;;;;;;;5065069;28;20147;-56
2023/05/24 01:30:20;;;;;;;2.95;1.38;;;;;;;;;;5064349;28;20049;-51
2023/05/24 01:32:46;;;;;;;5.03;1.83;;;;;;;;;;5063807;28;20061;-55
2023/05/24 01:35:13;;;;;;;4.93;1.77;;;;;;;;;;5063764;28;20107;-56
2023/05/24 01:37:39;;;;;;;8.90;2.42;;;;;;;;;;5063954;28;20938;-56
2023/05/24 01:40:06;;;;;;;5.75;2.13;;;;;;;;;;5063482;28;20055;-57
2023/05/24 01:42:36;;;;;;;8.25;2.47;;;;;;;;;;5062508;28;20067;-56
2023/05/24 01:45:11;;;;;;;6.82;2.53;;;;;;;;;;5063823;28;20061;-56
2023/05/24 01:47:50;;;;;;;4.28;1.73;;;;;;;;;;5064128;28;20106;-55
2023/05/24 01:50:23;;;;;;;8.05;2.03;;;;;;;;;;5064177;28;20061;-53
2023/05/24 01:52:52;;;;;;;7.05;2.13;;;;;;;;;;5063705;28;20053;-54
2023/05/24 01:55:19;;;;;;;5.80;2.15;;;;;;;;;;5063180;28;20558;-56
2023/05/24 01:57:47;;;;;;;5.97;2.33;;;;;;;;;;5063665;28;20489;-51
2023/05/24 02:00:15;;;;;;;10.13;2.13;;;;;;;;;;5063390;28;20056;-54
2023/05/24 02:02:41;;;;;;;5.88;2.25;;;;;;;;;;5063204;28;20056;-53
2023/05/24 02:05:09;;;;;;;11.48;2.30;;;;;;;;;;5063600;28;20140;-54
2023/05/24 02:07:35;;;;;;;8.27;2.25;;;;;;;;;;5062571;28;20573;-55
2023/05/24 02:10:02;;;;;;;8.35;2.63;;;;;;;;;;5062280;28;20495;-57
2023/05/24 02:12:28;;;;;;;8.43;2.20;;;;;;;;;;5063916;28;20049;-56
2023/05/24 02:14:56;;;;;;;11.07;2.15;;;;;;;;;;5063738;28;20106;-57
2023/05/24 02:17:24;;;;;;;5.00;1.98;;;;;;;;;;5064180;28;20056;-57
2023/05/24 02:19:51;;;;;;;6.75;2.63;;;;;;;;;;5062334;28;20064;-54
2023/05/24 02:22:17;;;;;;;2.50;1.52;;;;;;;;;;5062379;28;20115;-55
2023/05/24 02:24:44;;;;;;;9.48;2.97;;;;;;;;;;5063513;28;20111;-55
2023/05/24 02:27:10;;;;;;;9.32;2.30;;;;;;;;;;5062931;28;20570;-54
2023/05/24 02:29:36;;;;;;;5.38;2.28;;;;;;;;;;5063586;28;20113;-57
2023/05/24 02:32:03;;;;;;;6.07;2.30;;;;;;;;;;5062528;28;20061;-56
2023/05/24 02:34:29;;;;;;;5.82;1.85;;;;;;;;;;5062572;28;20120;-54
2023/05/24 02:36:56;;;;;;;11.02;2.22;;;;;;;;;;5063056;28;20495;-55
2023/05/24 02:39:22;;;;;;;8.48;2.25;;;;;;;;;;5063454;28;20060;-54
2023/05/24 02:41:48;;;;;;;16.13;2.67;;;;;;;;;;5062622;28;20162;-55
2023/05/24 02:44:15;;;;;;;16.23;3.63;;;;;;;;;;5062998;28;20048;-57
2023/05/24 02:46:41;;;;;;;8.82;2.85;;;;;;;;;;5063098;28;20109;-56
2023/05/24 02:49:09;;;;;;;11.20;2.72;;;;;;;;;;5062379;28;20531;-55
2023/05/24 02:51:38;;;;;;;11.63;3.10;;;;;;;;;;5061807;28;20536;-52
2023/05/24 02:54:05;;;;;;;8.27;2.83;;;;;;;;;;5061605;28;20059;-55
2023/05/24 02:56:31;;;;;;;9.90;2.80;;;;;;;;;;5062781;28;20045;-55
2023/05/24 02:58:58;;;;;;;12.18;2.72;;;;;;;;;;5062859;28;20057;-53
2023/05/24 03:01:24;;;;;;;6.85;2.55;;;;;;;;;;5063170;28;20137;-55
2023/05/24 03:03:51;;;;;;;8.30;1.95;;;;;;;;;;5062928;28;20134;-55
2023/05/24 03:06:17;;;;;;;11.00;2.65;;;;;;;;;;5060912;28;20887;-57
2023/05/24 03:08:44;;;;;;;13.27;2.95;;;;;;;;;;5062946;28;20052;-57
2023/05/24 03:11:10;;;;;;;11.07;3.13;;;;;;;;;;5062024;28;20084;-55
2023/05/24 03:13:36;;;;;;;7.00;2.42;;;;;;;;;;5062909;28;20059;-51
2023/05/24 03:16:03;;;;;;;5.75;2.13;;;;;;;;;;5062560;28;20057;-53
2023/05/24 03:18:29;;;;;;;15.52;3.03;;;;;;;;;;5062669;28;20119;-52
2023/05/24 03:20:56;;;;;;;6.03;2.10;;;;;;;;;;5064331;28;20132;-56
2023/05/24 03:23:22;;;;;;;6.90;2.65;;;;;;;;;;5066249;28;20578;-54
2023/05/24 03:25:48;;;;;;;10.55;2.90;;;;;;;;;;5066557;28;20136;-56
2023/05/24 03:28:15;;;;;;;6.18;2.20;;;;;;;;;;5065828;28;20083;-55
2023/05/24 03:30:41;;;;;;;6.82;1.73;;;;;;;;;;5064903;28;20207;-57
2023/05/24 03:33:09;;;;;;;6.68;2.13;;;;;;;;;;5065973;28;20160;-56
2023/05/24 03:35:35;;;;;;;2.08;1.77;;;;;;;;;;5065195;28;20049;-57
2023/05/24 03:38:02;;;;;;;11.27;2.55;;;;;;;;;;5065466;28;20206;-57
2023/05/24 03:40:31;;;;;;;12.02;2.85;;;;;;;;;;5064991;28;20099;-57
2023/05/24 03:42:58;;;;;;;14.90;3.72;;;;;;;;;;5065860;28;20059;-57
2023/05/24 03:45:24;;;;;;;16.15;3.47;;;;;;;;;;5065860;28;20064;-57
2023/05/24 03:48:04;;;;;;;10.68;2.55;;;;;;;;;;5065633;28;20056;-54
2023/05/24 03:50:31;;;;;;;5.15;1.75;;;;;;;;;;5065234;28;20060;-55
2023/05/24 03:52:57;;;;;;;18.88;3.67;;;;;;;;;;5065489;28;20553;-54
2023/05/24 03:55:24;;;;;;;9.82;2.72;;;;;;;;;;5065862;28;20136;-57
2023/05/24 03:57:50;;;;;;;7.75;2.72;;;;;;;;;;5065790;28;20139;-54
2023/05/24 04:00:17;;;;;;;10.77;2.95;;;;;;;;;;5064345;28;20053;-54
2023/05/24 04:02:43;;;;;;;15.10;2.80;;;;;;;;;;5065380;28;20055;-55
2023/05/24 04:05:11;;;;;;;7.57;2.58;;;;;;;;;;5064256;28;20138;-58
2023/05/24 04:07:37;;;;;;;11.15;2.63;;;;;;;;;;5065031;28;20045;-55
2023/05/24 04:10:04;;;;;;;10.10;2.65;;;;;;;;;;5064791;28;20112;-55
2023/05/24 04:12:31;;;;;;;11.45;2.53;;;;;;;;;;5064905;28;20530;-56
2023/05/24 04:14:58;;;;;;;8.65;2.22;;;;;;;;;;5063826;28;20514;-54
2023/05/24 04:17:25;;;;;;;13.30;2.70;;;;;;;;;;5065280;28;20107;-52
2023/05/24 04:19:52;;;;;;;9.63;2.67;;;;;;;;;;5064347;28;20100;-53
2023/05/24 04:22:19;;;;;;;9.20;3.15;;;;;;;;;;5065840;28;20051;-55
2023/05/24 04:24:45;;;;;;;11.32;2.63;;;;;;;;;;5064800;28;20052;-54
2023/05/24 04:27:12;;;;;;;8.77;2.30;;;;;;;;;;5065167;28;20613;-57
2023/05/24 04:29:38;;;;;;;10.48;3.25;;;;;;;;;;5064887;28;20483;-57
2023/05/24 04:32:05;;;;;;;12.40;2.92;;;;;;;;;;5063632;28;20056;-56
2023/05/24 04:34:35;;;;;;;14.73;2.55;;;;;;;;;;5064340;28;20053;-57
2023/05/24 04:37:02;;;;;;;17.20;3.15;;;;;;;;;;5064677;28;21311;-56
2023/05/24 04:39:28;;;;;;;8.43;2.80;;;;;;;;;;5064796;28;20057;-56
2023/05/24 04:41:56;;;;;;;11.02;3.25;;;;;;;;;;5063040;28;20159;-57
2023/05/24 04:44:23;;;;;;;8.93;2.90;;;;;;;;;;5065385;28;20481;-57
2023/05/24 04:46:49;;;;;;;12.65;2.97;;;;;;;;;;5064353;28;20049;-57
2023/05/24 04:49:16;;;;;;;8.23;2.40;;;;;;;;;;5064507;28;20057;-57
2023/05/24 04:51:43;;;;;;;8.45;2.40;;;;;;;;;;5064483;28;20053;-54
2023/05/24 04:54:09;;;;;;;9.65;3.67;;;;;;;;;;5064090;28;20084;-55
2023/05/24 04:56:37;;;;;;;5.72;2.60;;;;;;;;;;5064260;28;20056;-57
2023/05/24 04:59:04;;;;;;;14.00;3.47;;;;;;;;;;5064125;28;20053;-58
2023/05/24 05:01:31;;;;;;;10.00;2.92;;;;;;;;;;5063397;28;20049;-56
2023/05/24 05:03:58;;;;;;;16.08;3.72;;;;;;;;;;5064366;28;20060;-56
2023/05/24 05:06:24;;;;;;;9.10;3.45;;;;;;;;;;5064318;28;20285;-56
2023/05/24 05:08:51;;;;;;;12.55;3.83;;;;;;;;;;5064852;28;21312;-53
2023/05/24 05:11:17;;;;;;;8.63;2.65;;;;;;;;;;5064397;28;20053;-57
2023/05/24 05:13:44;;;;;;;8.45;2.83;;;;;;;;;;5064479;28;20057;-54
2023/05/24 05:16:10;;;;;;;9.90;2.63;;;;;;;;;;5052427;28;20136;-57
2023/05/24 05:18:37;;;;;;;13.63;2.97;;;;;;;;;;5043807;28;20049;-56
2023/05/24 05:21:03;;;;;;;11.73;2.97;;;;;;;;;;5043830;28;20099;-53
2023/05/24 05:23:30;;;;;;;15.90;2.92;;;;;;;;;;5044134;28;20063;-53
2023/05/24 05:25:56;;;;;;;12.70;3.40;;;;;;;;;;5059694;28;20511;-55
2023/05/24 05:28:22;;;;;;;12.88;3.05;;;;;;;;;;5056961;28;20056;-55
2023/05/24 05:30:49;;;;;;;13.27;3.17;;;;;;;;;;5064240;28;20060;-55
2023/05/24 05:33:15;;;;;;;10.30;3.38;;;;;;;;;;5063264;28;20049;-54
2023/05/24 05:35:42;;;;;;;8.00;2.67;;;;;;;;;;5063786;28;20085;-56
2023/05/24 05:38:08;;;;;;;13.82;3.53;;;;;;;;;;5063991;28;20052;-55
2023/05/24 05:40:35;;;;;;;12.90;3.45;;;;;;;;;;5063348;28;20049;-55
2023/05/24 05:43:01;;;;;;;11.43;3.17;;;;;;;;;;5063175;28;20055;-55
2023/05/24 05:45:27;;;;;;;11.25;3.92;;;;;;;;;;5063543;28;20114;-57
2023/05/24 05:47:54;;;;;;;9.93;2.58;;;;;;;;;;5064686;28;20561;-57
2023/05/24 05:50:20;;;;;;;11.68;3.00;;;;;;;;;;5065003;28;20064;-57
2023/05/24 05:52:46;;;;;;;10.63;4.00;;;;;;;;;;5064226;28;20140;-57
2023/05/24 05:55:13;;;;;;;5.35;3.03;;;;;;;;;;5064354;28;20619;-57
2023/05/24 05:57:39;;;;;;;14.30;3.28;;;;;;;;;;5066177;28;20406;-56
2023/05/24 06:00:06;;;;;;;11.93;2.92;;;;;;;;;;5063194;28;20518;-55
2023/05/24 06:02:33;;;;;;;9.63;2.85;;;;;;;;;;5043853;28;20065;-55
2023/05/24 06:04:59;;;;;;;9.80;3.05;;;;;;;;;;5043756;28;20063;-55
2023/05/24 06:07:26;;;;;;;11.18;2.95;;;;;;;;;;5043847;28;20053;-54
2023/05/24 06:09:52;;;;;;;13.18;3.42;;;;;;;;;;5043527;28;20492;-53
2023/05/24 06:12:18;;;;;;;9.13;2.38;;;;;;;;;;5043473;28;20099;-55
2023/05/24 06:14:47;;;;;;;12.73;2.78;;;;;;;;;;5042981;28;20053;-56
2023/05/24 06:17:13;;;;;;;9.75;3.45;;;;;;;;;;5043287;28;20064;-52
2023/05/24 06:19:40;;;;;;;7.95;2.35;;;;;;;;;;5043290;28;20053;-57
2023/05/24 06:22:06;;;;;;;5.45;2.45;;;;;;;;;;5043067;28;20060;-56
2023/05/24 06:24:33;;;;;;;8.32;2.45;;;;;;;;;;5043308;28;20111;-56
2023/05/24 06:27:00;;;;;;;6.63;3.17;;;;;;;;;;5043096;28;20515;-54
2023/05/24 06:29:30;;;;;;;8.93;2.58;;;;;;;;;;5043186;28;20057;-55
2023/05/24 06:31:56;;;;;;;15.07;3.17;;;;;;;;;;5059917;28;20059;-56
2023/05/24 06:34:23;;;;;;;6.82;2.45;;;;;;;;;;5063439;28;20162;-53
2023/05/24 06:36:51;;;;;;;10.15;3.13;;;;;;;;;;5063701;28;20107;-55
2023/05/24 06:39:18;;;;;;;8.75;2.60;;;;;;;;;;5060332;28;20136;-54
2023/05/24 06:41:45;;;;;;;11.45;2.95;;;;;;;;;;5061521;28;20495;-53
2023/05/24 06:44:12;;;;;;;7.53;2.30;;;;;;;;;;5062122;28;20128;-55
2023/05/24 06:46:38;;;;;;;8.55;2.97;;;;;;;;;;5063146;28;20052;-57
2023/05/24 06:49:05;;;;;;;8.98;3.38;;;;;;;;;;5059730;28;20123;-53
2023/05/24 06:51:36;;;;;;;6.68;2.63;;;;;;;;;;5061633;28;20069;-51
2023/05/24 06:54:03;;;;;;;8.75;2.17;;;;;;;;;;5063960;28;20124;-56
2023/05/24 06:56:29;;;;;;;7.82;2.65;;;;;;;;;;5065336;28;20672;-56
2023/05/24 06:58:55;;;;;;;8.50;2.63;;;;;;;;;;5062471;28;20057;-56
2023/05/24 07:01:22;;;;;;;9.63;2.33;;;;;;;;;;5066508;28;20112;-57
2023/05/24 07:03:48;;;;;;;7.30;2.03;;;;;;;;;;5066651;28;20422;-56
2023/05/24 07:06:16;;;;;;;12.68;3.22;;;;;;;;;;5065605;28;20488;-55
2023/05/24 07:08:42;;;;;;;7.85;2.33;;;;;;;;;;5062208;28;20112;-56
2023/05/24 07:11:08;;;;;;;9.02;3.10;;;;;;;;;;5065887;28;20198;-57
2023/05/24 07:13:35;;;;;;;11.43;2.58;;;;;;;;;;5065993;28;20079;-51
2023/05/24 07:16:01;;;;;;;7.93;2.22;;;;;;;;;;5066584;28;20639;-55
2023/05/24 07:18:28;;;;;;;12.88;2.47;;;;;;;;;;5066340;28;20550;-55
2023/05/24 07:20:55;;;;;;;14.25;2.50;;;;;;;;;;5066133;28;20057;-54
2023/05/24 07:23:21;;;;;;;6.05;2.83;;;;;;;;;;5066327;28;20631;-55
2023/05/24 07:25:48;;;;;;;7.18;2.28;;;;;;;;;;5064023;28;21092;-52
2023/05/24 07:28:16;;;;;;;12.55;2.88;;;;;;;;;;5065995;28;20118;-55
2023/05/24 07:30:43;;;;;;;5.72;1.92;;;;;;;;;;5066199;28;20053;-54
2023/05/24 07:33:10;;;;;;;7.82;2.55;;;;;;;;;;5065551;28;20566;-55
2023/05/24 07:35:37;;;;;;;9.07;2.38;;;;;;;;;;5064643;28;20501;-54
2023/05/24 07:38:03;;;;;;;9.07;2.60;;;;;;;;;;5063775;28;20053;-56
2023/05/24 07:40:30;;;;;;;4.70;1.92;;;;;;;;;;5066003;28;20136;-56
2023/05/24 07:42:56;;;;;;;8.93;3.15;;;;;;;;;;5064221;28;20056;-54
2023/05/24 07:45:22;;;;;;;11.13;2.30;;;;;;;;;;5065595;28;20056;-56
2023/05/24 07:47:49;;;;;;;10.88;2.58;;;;;;;;;;5066453;28;20140;-58
2023/05/24 07:50:16;;;;;;;5.85;1.73;;;;;;;;;;5065655;28;20425;-53
2023/05/24 07:52:42;;;;;;;6.90;2.30;;;;;;;;;;5065644;28;20107;-53
2023/05/24 07:55:09;;;;;;;12.50;2.78;;;;;;;;;;5065741;28;20781;-57
2023/05/24 07:57:35;;;;;;;7.68;2.58;;;;;;;;;;5065610;28;20612;-53
2023/05/24 08:00:09;;;;;;;12.48;2.92;;;;;;;;;;5063534;28;20575;-55
2023/05/24 08:02:35;;;;;;;9.82;2.65;;;;;;;;;;5063831;28;20514;-56
2023/05/24 08:05:03;;;;;;;8.93;1.95;;;;;;;;;;5064897;28;20056;-57
2023/05/24 08:07:30;;;;;;;6.38;2.55;;;;;;;;;;5065067;28;20052;-57
2023/05/24 08:09:56;;;;;;;8.13;1.83;;;;;;;;;;5063489;28;20527;-56
2023/05/24 08:12:24;;;;;;;5.68;1.70;;;;;;;;;;5064892;28;20096;-57
2023/05/24 08:14:51;;;;;;;7.43;2.22;;;;;;;;;;5064062;28;20080;-56
2023/05/24 08:17:18;;;;;;;12.20;2.45;;;;;;;;;;5065076;28;20111;-57
2023/05/24 08:19:44;;;;;;;6.78;2.13;;;;;;;;;;5063397;28;20103;-58
2023/05/24 08:22:11;;;;;;;16.63;2.75;;;;;;;;;;5065247;28;20099;-58
2023/05/24 08:24:37;;;;;;;11.13;3.35;;;;;;;;;;5064786;28;20130;-57
2023/05/24 08:27:04;;;;;;;8.73;2.08;;;;;;;;;;5065119;28;20057;-56
2023/05/24 08:29:31;;;;;;;5.18;1.92;;;;;;;;;;5065241;28;20103;-56
2023/05/24 08:31:58;;;;;;;4.25;1.58;;;;;;;;;;5065060;28;20045;-57
2023/05/24 08:34:25;;;;;;;7.53;2.25;;;;;;;;;;5051075;28;20158;-51
2023/05/24 08:36:52;;;;;;;6.70;2.30;;;;;;;;;;5046338;28;20061;-53
2023/05/24 08:39:19;;;;;;;4.63;1.55;;;;;;;;;;5064794;28;20057;-55
2023/05/24 08:41:45;;;;;;;13.60;2.53;;;;;;;;;;5064783;28;20110;-53
2023/05/24 08:44:37;;;;;;;7.72;2.50;;;;;;;;;;5056806;28;20059;-56
2023/05/24 08:47:03;;;;;;;9.10;2.35;;;;;;;;;;5065287;28;20065;-55
2023/05/24 08:49:32;;;;;;;10.65;2.33;;;;;;;;;;5066415;28;20140;-51
2023/05/24 08:52:00;;;;;;;7.10;2.10;;;;;;;;;;5061045;28;20053;-53
2023/05/24 08:54:26;;;;;;;5.82;2.30;;;;;;;;;;5064152;28;20057;-56
2023/05/24 08:56:52;;;;;;;4.47;2.20;;;;;;;;;;5064530;28;20049;-55
2023/05/24 08:59:19;;;;;;;7.10;1.65;;;;;;;;;;5064462;28;20053;-54
2023/05/24 09:01:49;;;;;;;5.50;2.03;;;;;;;;;;5064166;28;20053;-54
2023/05/24 09:04:16;;;;;;;9.05;2.05;;;;;;;;;;5064888;28;20057;-51
2023/05/24 09:06:42;;;;;;;2.35;1.80;;;;;;;;;;5064598;28;20087;-57
2023/05/24 09:09:09;;;;;;;8.68;2.30;;;;;;;;;;5045565;28;20116;-57
2023/05/24 09:11:38;;;;;;;7.78;2.30;;;;;;;;;;5044649;28;20107;-54
2023/05/24 09:14:04;;;;;;;5.45;2.20;;;;;;;;;;5063920;28;20096;-55
2023/05/24 09:16:31;;;;;;;4.70;1.85;;;;;;;;;;5064963;28;20052;-55
2023/05/24 09:18:57;;;;;;;4.05;1.95;;;;;;;;;;5064282;28;20536;-54
2023/05/24 09:21:24;;;;;;;7.70;1.90;;;;;;;;;;5065185;28;20053;-55
2023/05/24 09:23:52;;;;;;;6.35;2.28;;;;;;;;;;5062425;28;20115;-53
2023/05/24 09:26:19;;;;;;;5.38;1.80;;;;;;;;;;5064293;28;20057;-55
2023/05/24 09:28:46;;;;;;;7.18;2.05;;;;;;;;;;5064489;28;20057;-55
2023/05/24 09:31:12;;;;;;;6.07;1.83;;;;;;;;;;5062789;28;20049;-51
2023/05/24 09:33:39;;;;;;;6.25;1.85;;;;;;;;;;5064040;28;20057;-52
2023/05/24 09:36:06;;;;;;;7.68;2.53;;;;;;;;;;5063541;28;20530;-55
2023/05/24 09:38:32;;;;;;;5.50;1.48;;;;;;;;;;5063469;28;20057;-53
2023/05/24 09:40:59;;;;;;;6.32;1.83;;;;;;;;;;5063008;28;20062;-54
2023/05/24 09:43:26;;;;;;;8.15;2.17;;;;;;;;;;5043978;28;20115;-52
2023/05/24 09:45:54;;;;;;;8.93;2.55;;;;;;;;;;5044276;28;20042;-56
2023/05/24 09:48:20;;;;;;;9.45;2.08;;;;;;;;;;5043897;28;20579;-54
2023/05/24 09:51:03;;;;;;;6.43;1.92;;;;;;;;;;5043474;28;20052;-55
2023/05/24 09:53:32;;;;;;;4.03;2.15;;;;;;;;;;5043499;28;20063;-52
2023/05/24 09:56:00;;;;;;;6.05;1.88;;;;;;;;;;5043436;28;20060;-55
2023/05/24 09:58:32;;;;;;;8.52;2.45;;;;;;;;;;5048914;28;20053;-55
2023/05/24 10:01:09;;;;;;;8.45;2.45;;;;;;;;;;5042300;28;20565;-55
2023/05/24 10:03:36;;;;;;;9.48;3.22;;;;;;;;;;5042129;28;20061;-54
2023/05/24 10:06:06;;;;;;;4.97;1.77;;;;;;;;;;5043224;28;21032;-52
2023/05/24 10:08:33;;;;;;;5.60;2.10;;;;;;;;;;5043712;28;20053;-52
2023/05/24 10:11:01;;;;;;;6.68;2.00;;;;;;;;;;5043016;28;20116;-54
2023/05/24 10:13:27;;;;;;;3.45;1.73;;;;;;;;;;5043444;28;20060;-56
2023/05/24 10:15:54;;;;;;;6.60;2.05;;;;;;;;;;5043402;28;20057;-55
2023/05/24 10:18:20;;;;;;;5.80;2.10;;;;;;;;;;5043410;28;20046;-54
2023/05/24 10:20:47;;;;;;;4.10;1.65;;;;;;;;;;5042931;28;20060;-55
2023/05/24 10:23:15;;;;;;;10.25;2.47;;;;;;;;;;5043413;28;20148;-56
2023/05/24 10:25:58;;;;;;;7.50;2.13;;;;;;;;;;5043452;28;20045;-54
2023/05/24 10:28:25;;;;;;;8.55;2.42;;;;;;;;;;5043660;28;20093;-54
2023/05/24 10:31:03;;;;;;;8.27;2.47;;;;;;;;;;5045722;28;20060;-57
2023/05/24 10:33:31;;;;;;;4.40;1.75;;;;;;;;;;5047126;28;20108;-57
2023/05/24 10:35:57;;;;;;;5.95;1.70;;;;;;;;;;5046459;28;20101;-57
2023/05/24 10:38:24;;;;;;;5.38;2.45;;;;;;;;;;5047131;28;20404;-57
2023/05/24 10:40:51;;;;;;;7.45;2.00;;;;;;;;;;5046264;28;20054;-56
2023/05/24 10:43:17;;;;;;;7.00;2.08;;;;;;;;;;5046723;28;20065;-57
2023/05/24 10:45:47;;;;;;;5.82;2.03;;;;;;;;;;5045216;28;20084;-56
2023/05/24 10:48:14;;;;;;;7.85;1.88;;;;;;;;;;5046445;28;20738;-56
2023/05/24 10:50:41;;;;;;;4.35;1.90;;;;;;;;;;5053152;28;20063;-57
2023/05/24 10:53:15;;;;;;;8.50;1.67;;;;;;;;;;5065479;28;20151;-58
2023/05/24 10:55:54;;;;;;;6.32;1.98;;;;;;;;;;5066441;28;20084;-56
2023/05/24 10:58:25;;;;;;;4.90;1.58;;;;;;;;;;5065600;28;20642;-57
2023/05/24 11:00:52;;;;;;;4.28;1.80;;;;;;;;;;5063062;28;20103;-55
2023/05/24 11:03:23;;;;;;;11.68;1.60;;;;;;;;;;5065866;28;20057;-56
2023/05/24 11:05:51;;;;;;;2.35;1.27;;;;;;;;;;5065226;28;20060;-57
2023/05/24 11:08:22;;;;;;;5.18;2.47;;;;;;;;;;5066837;28;20485;-59
2023/05/24 11:10:49;;;;;;;5.22;1.80;;;;;;;;;;5066466;28;20080;-58
2023/05/24 11:13:17;;;;;;;2.75;1.65;;;;;;;;;;5066282;28;20080;-58
2023/05/24 11:15:50;;;;;;;4.65;1.88;;;;;;;;;;5066839;28;20056;-56
2023/05/24 11:18:20;;;;;;;6.28;1.70;;;;;;;;;;5065765;28;20049;-57
2023/05/24 11:20:47;;;;;;;4.50;1.85;;;;;;;;;;5065153;28;20057;-58
2023/05/24 11:23:14;;;;;;;4.40;1.40;;;;;;;;;;5066157;28;20048;-55
2023/05/24 11:25:41;;;;;;;4.88;1.33;;;;;;;;;;5065086;28;20143;-57
2023/05/24 11:28:09;;;;;;;7.53;2.35;;;;;;;;;;5065822;28;20052;-58
2023/05/24 11:30:39;;;;;;;3.42;1.35;;;;;;;;;;5066047;28;20057;-58
2023/05/24 11:33:17;;;;;;;4.18;2.13;;;;;;;;;;5065198;28;20049;-58
2023/05/24 11:35:44;;;;;;;8.32;2.03;;;;;;;;;;5066458;28;20415;-57
2023/05/24 11:38:13;;;;;;;5.20;1.35;;;;;;;;;;5065628;28;20053;-57
2023/05/24 11:40:43;;;;;;;2.45;1.40;;;;;;;;;;5065298;28;20126;-57
2023/05/24 11:43:16;;;;;;;5.97;1.40;;;;;;;;;;5066475;28;20061;-55
2023/05/24 11:45:43;;;;;;;3.40;2.10;;;;;;;;;;5067504;28;20049;-58
2023/05/24 11:48:10;;;;;;;3.83;1.80;;;;;;;;;;5064445;28;20554;-57
2023/05/24 11:50:41;;;;;;;5.15;1.42;;;;;;;;;;5066109;28;20546;-57
2023/05/24 11:53:17;;;;;;;4.93;1.58;;;;;;;;;;5064580;28;20060;-58
2023/05/24 11:55:44;;;;;;;3.00;1.50;;;;;;;;;;5066077;28;20056;-53
2023/05/24 11:58:16;;;;;;;5.05;1.92;;;;;;;;;;5058191;28;20056;-58
2023/05/24 12:00:43;;;;;;;4.43;2.10;;;;;;;;;;5065733;28;20057;-57
2023/05/24 12:03:09;;;;;;;4.80;2.03;;;;;;;;;;5064139;28;20503;-55
2023/05/24 12:05:36;;;;;;;5.20;1.60;;;;;;;;;;5064194;28;20053;-55
2023/05/24 12:08:04;;;;;;;8.10;1.80;;;;;;;;;;5064939;28;20152;-55
2023/05/24 12:10:32;;;;;;;2.42;1.38;;;;;;;;;;5065233;28;20126;-57
2023/05/24 12:12:58;;;;;;;4.53;1.35;;;;;;;;;;5065508;28;20096;-58
2023/05/24 12:15:25;;;;;;;6.80;2.63;;;;;;;;;;5052898;28;20607;-57
2023/05/24 12:17:52;;;;;;;2.38;1.80;;;;;;;;;;5044406;28;20057;-59
2023/05/24 12:20:19;;;;;;;3.58;1.90;;;;;;;;;;5045010;28;20045;-58
2023/05/24 12:22:52;;;;;;;2.95;1.73;;;;;;;;;;5057435;28;20057;-58
2023/05/24 12:25:21;;;;;;;3.50;1.40;;;;;;;;;;5065336;28;20064;-59
2023/05/24 12:27:52;;;;;;;5.22;2.08;;;;;;;;;;5065056;28;20084;-59
2023/05/24 12:30:23;;;;;;;2.25;1.83;;;;;;;;;;5065562;28;20052;-58
2023/05/24 12:32:50;;;;;;;4.97;1.70;;;;;;;;;;5063952;28;20098;-59
2023/05/24 12:35:17;;;;;;;6.18;1.58;;;;;;;;;;5064810;28;20057;-59
2023/05/24 12:37:44;;;;;;;5.43;1.95;;;;;;;;;;5065049;28;20625;-56
2023/05/24 12:40:19;;;;;;;7.57;2.30;;;;;;;;;;5064860;28;20882;-57
2023/05/24 12:42:48;;;;;;;;;;;;;;;;;;5065065;28;20061;-55
2023/05/24 12:45:16;;;;;;;4.07;1.48;;;;;;;;;;5063399;28;44709;-57
2023/05/24 12:47:43;;;;;;;6.50;1.77;;;;;;;;;;5064962;28;20146;-58
2023/05/24 12:50:10;;;;;;;3.03;1.17;;;;;;;;;;5063937;28;20580;-57
2023/05/24 12:52:36;;;;;;;3.42;1.58;;;;;;;;;;5063746;28;20426;-58
2023/05/24 12:55:03;;;;;;;4.55;1.80;;;;;;;;;;5063002;28;20171;-58
2023/05/24 12:57:29;;;;;;;3.78;1.80;;;;;;;;;;5064690;28;20119;-55
2023/05/24 12:59:56;;;;;;;8.68;2.70;;;;;;;;;;5064319;28;20052;-54
2023/05/24 13:02:23;;;;;;;3.42;1.80;;;;;;;;;;5064562;28;20053;-59
2023/05/24 13:04:50;;;;;;;8.63;2.45;;;;;;;;;;5065438;28;20124;-55
2023/05/24 13:07:16;;;;;;;7.57;2.28;;;;;;;;;;5064569;28;20048;-59
2023/05/24 13:09:43;;;;;;;8.57;1.67;;;;;;;;;;5064441;28;20060;-59
2023/05/24 13:12:09;;;;;;;7.38;1.60;;;;;;;;;;5064337;28;20136;-59
2023/05/24 13:14:35;;;;;;;6.88;1.90;;;;;;;;;;5064020;28;20084;-57
2023/05/24 13:17:02;;;;;;;2.47;1.30;;;;;;;;;;5063450;28;20061;-58
2023/05/24 13:19:28;;;;;;;7.32;1.77;;;;;;;;;;5064642;28;20553;-58
2023/05/24 13:21:54;;;;;;;3.35;1.48;;;;;;;;;;5064474;28;20064;-58
2023/05/24 13:24:22;;;;;;;3.80;1.50;;;;;;;;;;5063779;28;20172;-59
2023/05/24 13:26:48;;;;;;;3.35;1.52;;;;;;;;;;5062312;28;20051;-54
2023/05/24 13:29:19;;;;;;;3.28;1.70;;;;;;;;;;5063815;28;20115;-56
2023/05/24 13:32:02;;;;;;;3.13;1.52;;;;;;;;;;5063152;28;20049;-59
2023/05/24 13:34:28;;;;;;;3.28;1.30;;;;;;;;;;5063830;28;20630;-58
2023/05/24 13:36:54;;;;;;;3.10;1.10;;;;;;;;;;5064301;28;20053;-59
2023/05/24 13:39:21;;;;;;;5.95;1.80;;;;;;;;;;5061927;28;20590;-54
2023/05/24 13:41:48;;;;;;;7.05;2.10;;;;;;;;;;5063717;28;20064;-58
2023/05/24 13:44:15;;;;;;;5.85;1.60;;;;;;;;;;5063892;28;20135;-57
2023/05/24 13:46:42;;;;;;;4.50;1.90;;;;;;;;;;5064580;28;20140;-58
2023/05/24 13:49:09;;;;;;;3.60;1.98;;;;;;;;;;5063892;28;20088;-57
2023/05/24 13:51:36;;;;;;;3.72;1.70;;;;;;;;;;5061966;28;20060;-55
2023/05/24 13:54:05;;;;;;;4.32;1.70;;;;;;;;;;5063634;28;20135;-58
2023/05/24 13:56:32;;;;;;;7.25;1.83;;;;;;;;;;5063394;28;20080;-59
2023/05/24 13:59:00;;;;;;;3.10;1.42;;;;;;;;;;5062260;28;20044;-58
2023/05/24 14:01:27;;;;;;;3.88;1.52;;;;;;;;;;5063876;28;20053;-56
2023/05/24 14:03:53;;;;;;;10.32;2.28;;;;;;;;;;5063129;28;20053;-59
2023/05/24 14:06:20;;;;;;;5.68;1.52;;;;;;;;;;5063752;28;20103;-59
2023/05/24 14:08:47;;;;;;;6.30;1.80;;;;;;;;;;5063899;28;20502;-57
2023/05/24 14:11:14;;;;;;;4.40;1.73;;;;;;;;;;5063377;28;20053;-58
2023/05/24 14:13:41;;;;;;;4.65;1.60;;;;;;;;;;5062201;28;20509;-55
2023/05/24 14:16:27;;;;;;;4.15;1.55;;;;;;;;;;5063761;28;20179;-57
2023/05/24 14:18:54;;;;;;;2.53;1.38;;;;;;;;;;5063743;28;20080;-58
2023/05/24 14:21:22;;;;;;;2.78;1.65;;;;;;;;;;5063193;28;20055;-57
2023/05/24 14:23:48;;;;;;;4.28;1.65;;;;;;;;;;5063391;28;20084;-58
2023/05/24 14:26:15;;;;;;;4.75;1.52;;;;;;;;;;5063565;28;20103;-58
2023/05/24 14:28:41;;;;;;;4.10;1.63;;;;;;;;;;5063047;28;20053;-54
2023/05/24 14:31:08;;;;;;;4.68;1.40;;;;;;;;;;5062689;28;20064;-56
2023/05/24 14:33:34;;;;;;;3.72;1.08;;;;;;;;;;5047616;28;20211;-55
2023/05/24 14:36:00;;;;;;;2.65;1.40;;;;;;;;;;5058467;28;20057;-56
2023/05/24 14:38:27;;;;;;;5.28;1.42;;;;;;;;;;5049082;28;20533;-56
2023/05/24 14:40:55;;;;;;;2.63;1.60;;;;;;;;;;5063068;28;20590;-54
2023/05/24 14:43:22;;;;;;;2.75;1.48;;;;;;;;;;5062898;28;20072;-48